createdAt,value
2023-05-15T00:00:06.984Z,33.13
2023-05-15T00:02:39.541Z,33.30
2023-05-15T00:05:07.498Z,33.69
2023-05-15T00:07:35.455Z,32.91
2023-05-15T00:10:03.023Z,33.31
2023-05-15T00:12:30.087Z,33.42
2023-05-15T00:14:57.153Z,33.73
2023-05-15T00:17:26.031Z,33.14
2023-05-15T00:19:53.342Z,33.09
2023-05-15T00:22:20.463Z,33.38
2023-05-15T00:24:47.495Z,32.81
2023-05-15T00:27:14.542Z,33.38
2023-05-15T00:29:41.891Z,33.19
2023-05-15T00:32:09.014Z,32.83
2023-05-15T00:34:37.572Z,33.36
2023-05-15T00:37:04.812Z,33.28
2023-05-15T00:39:31.923Z,33.08
2023-05-15T00:42:01.963Z,33.70
2023-05-15T00:44:31.107Z,33.16
2023-05-15T00:46:59.940Z,33.22
2023-05-15T00:49:28.325Z,33.59
2023-05-15T00:51:57.443Z,33.59
2023-05-15T00:54:25.174Z,33.31
2023-05-15T00:56:52.790Z,33.18
2023-05-15T00:59:21.703Z,33.15
2023-05-15T01:01:49.085Z,33.07
2023-05-15T01:04:16.265Z,33.29
2023-05-15T01:06:43.543Z,33.02
2023-05-15T01:09:12.953Z,32.89
2023-05-15T01:11:42.226Z,33.69
2023-05-15T01:14:10.335Z,33.52
2023-05-15T01:16:38.972Z,32.84
2023-05-15T01:19:06.660Z,33.62
2023-05-15T01:21:53.082Z,33.16
2023-05-15T01:24:34.174Z,33.71
2023-05-15T01:27:07.743Z,33.59
2023-05-15T01:29:37.956Z,33.57
2023-05-15T01:32:09.371Z,33.62
2023-05-15T01:34:42.554Z,33.01
2023-05-15T01:37:11.152Z,33.63
2023-05-15T01:39:39.661Z,34.21
2023-05-15T01:42:09.452Z,33.49
2023-05-15T01:44:37.683Z,33.79
2023-05-15T01:47:07.701Z,33.69
2023-05-15T01:49:36.925Z,33.99
2023-05-15T01:52:07.214Z,33.86
2023-05-15T01:54:36.406Z,33.89
2023-05-15T01:57:04.290Z,33.78
2023-05-15T01:59:33.346Z,33.40
2023-05-15T02:02:04.132Z,34.05
2023-05-15T02:04:33.285Z,33.76
2023-05-15T02:07:01.310Z,33.60
2023-05-15T02:09:29.090Z,33.75
2023-05-15T02:11:57.207Z,33.56
2023-05-15T02:14:24.959Z,34.24
2023-05-15T02:16:53.822Z,33.93
2023-05-15T02:19:21.047Z,33.70
2023-05-15T02:21:48.988Z,33.94
2023-05-15T02:24:16.614Z,34.02
2023-05-15T02:26:45.670Z,33.56
2023-05-15T02:29:18.654Z,33.28
2023-05-15T02:31:49.249Z,33.47
2023-05-15T02:34:23.559Z,33.45
2023-05-15T02:36:52.208Z,33.66
2023-05-15T02:39:20.323Z,33.73
2023-05-15T02:41:48.210Z,34.00
2023-05-15T02:44:17.748Z,33.97
2023-05-15T02:46:44.846Z,33.36
2023-05-15T02:49:12.528Z,33.80
2023-05-15T02:51:41.374Z,33.66
2023-05-15T02:54:08.833Z,33.54
2023-05-15T02:56:36.122Z,34.44
2023-05-15T02:59:04.122Z,33.97
2023-05-15T03:01:31.735Z,33.43
2023-05-15T03:04:00.300Z,33.96
2023-05-15T03:06:27.929Z,34.51
2023-05-15T03:08:57.290Z,34.09
2023-05-15T03:11:25.475Z,34.61
2023-05-15T03:13:52.512Z,34.59
2023-05-15T03:16:19.608Z,34.53
2023-05-15T03:18:46.808Z,34.53
2023-05-15T03:21:13.969Z,34.72
2023-05-15T03:23:41.341Z,34.51
2023-05-15T03:26:10.362Z,34.42
2023-05-15T03:28:37.618Z,34.49
2023-05-15T03:31:04.969Z,34.83
2023-05-15T03:33:32.581Z,34.56
2023-05-15T03:35:59.950Z,33.97
2023-05-15T03:38:27.056Z,34.71
2023-05-15T03:40:54.089Z,34.52
2023-05-15T03:43:22.769Z,34.38
2023-05-15T03:45:49.956Z,33.81
2023-05-15T03:48:17.188Z,33.98
2023-05-15T03:50:45.588Z,34.26
2023-05-15T03:53:13.237Z,33.98
2023-05-15T03:55:40.982Z,34.54
2023-05-15T03:58:08.051Z,34.33
2023-05-15T04:00:36.974Z,33.85
2023-05-15T04:03:04.156Z,33.63
2023-05-15T04:05:31.438Z,33.93
2023-05-15T04:07:58.976Z,33.16
2023-05-15T04:10:26.519Z,34.24
2023-05-15T04:12:53.705Z,34.13
2023-05-15T04:15:21.766Z,33.32
2023-05-15T04:17:51.688Z,33.16
2023-05-15T04:20:19.391Z,34.20
2023-05-15T04:22:46.929Z,32.49
2023-05-15T04:25:14.962Z,33.45
2023-05-15T04:27:42.642Z,32.70
2023-05-15T04:30:10.756Z,33.16
2023-05-15T04:32:38.100Z,33.88
2023-05-15T04:35:07.950Z,33.72
2023-05-15T04:37:35.145Z,32.65
2023-05-15T04:40:02.763Z,33.61
2023-05-15T04:42:29.989Z,34.81
2023-05-15T04:44:57.133Z,34.59
2023-05-15T04:47:24.251Z,34.29
2023-05-15T04:49:51.441Z,34.59
2023-05-15T04:52:20.278Z,33.00
2023-05-15T04:54:47.367Z,32.62
2023-05-15T04:57:14.552Z,34.85
2023-05-15T04:59:41.693Z,34.46
2023-05-15T05:02:09.460Z,33.60
2023-05-15T05:04:37.148Z,33.19
2023-05-15T05:07:05.096Z,34.02
2023-05-15T05:09:33.719Z,34.13
2023-05-15T05:12:01.231Z,33.17
2023-05-15T05:14:28.484Z,33.90
2023-05-15T05:16:55.646Z,34.32
2023-05-15T05:19:22.997Z,34.66
2023-05-15T05:21:50.187Z,34.62
2023-05-15T05:24:17.376Z,34.29
2023-05-15T05:26:46.152Z,34.56
2023-05-15T05:29:13.200Z,34.79
2023-05-15T05:31:40.364Z,34.06
2023-05-15T05:34:08.067Z,34.52
2023-05-15T05:36:35.180Z,34.36
2023-05-15T05:39:02.343Z,33.86
2023-05-15T05:41:29.862Z,33.83
2023-05-15T05:43:58.380Z,33.75
2023-05-15T05:46:25.608Z,33.42
2023-05-15T05:48:52.922Z,33.85
2023-05-15T05:51:20.374Z,33.58
2023-05-15T05:53:47.687Z,33.87
2023-05-15T05:56:15.160Z,33.53
2023-05-15T05:58:42.298Z,33.39
2023-05-15T06:01:11.068Z,33.06
2023-05-15T06:03:38.683Z,33.64
2023-05-15T06:06:06.226Z,32.47
2023-05-15T06:08:33.339Z,33.15
2023-05-15T06:11:00.521Z,33.30
2023-05-15T06:13:27.700Z,33.58
2023-05-15T06:15:54.906Z,33.35
2023-05-15T06:18:24.090Z,31.85
2023-05-15T06:20:51.341Z,32.23
2023-05-15T06:23:18.658Z,31.66
2023-05-15T06:25:46.442Z,32.33
2023-05-15T06:28:13.702Z,31.62
2023-05-15T06:30:41.013Z,32.38
2023-05-15T06:33:08.786Z,32.19
2023-05-15T06:35:37.534Z,33.82
2023-05-15T06:38:04.644Z,32.37
2023-05-15T06:40:32.654Z,32.41
2023-05-15T06:42:59.839Z,33.36
2023-05-15T06:45:27.619Z,32.96
2023-05-15T06:47:55.270Z,33.59
2023-05-15T06:50:22.526Z,33.41
2023-05-15T06:52:51.788Z,33.61
2023-05-15T06:55:19.341Z,32.57
2023-05-15T06:57:46.559Z,33.24
2023-05-15T07:00:14.296Z,32.94
2023-05-15T07:02:41.724Z,33.22
2023-05-15T07:05:09.164Z,33.80
2023-05-15T07:07:36.362Z,33.20
2023-05-15T07:10:05.652Z,33.17
2023-05-15T07:12:32.787Z,32.82
2023-05-15T07:15:00.492Z,32.81
2023-05-15T07:17:28.440Z,32.57
2023-05-15T07:19:56.222Z,33.18
2023-05-15T07:22:23.821Z,32.09
2023-05-15T07:24:51.265Z,32.12
2023-05-15T07:27:20.741Z,31.69
2023-05-15T07:29:48.378Z,32.20
2023-05-15T07:32:16.073Z,32.92
2023-05-15T07:34:44.390Z,32.93
2023-05-15T07:37:12.529Z,31.70
2023-05-15T07:39:40.488Z,31.00
2023-05-15T07:42:07.620Z,31.50
2023-05-15T07:44:36.413Z,32.51
2023-05-15T07:47:03.659Z,33.32
2023-05-15T07:49:31.030Z,31.67
2023-05-15T07:51:58.488Z,30.98
2023-05-15T07:54:26.408Z,31.56
2023-05-15T07:56:53.895Z,32.25
2023-05-15T07:59:21.777Z,32.56
2023-05-15T08:01:50.776Z,32.41
2023-05-15T08:04:18.523Z,32.71
2023-05-15T08:06:46.749Z,32.46
2023-05-15T08:09:14.627Z,32.57
2023-05-15T08:11:41.661Z,31.67
2023-05-15T08:14:09.589Z,30.92
2023-05-15T08:16:38.183Z,31.05
2023-05-15T08:19:08.216Z,31.61
2023-05-15T08:21:36.961Z,31.75
2023-05-15T08:24:05.038Z,31.62
2023-05-15T08:26:33.143Z,31.46
2023-05-15T08:29:00.928Z,31.59
2023-05-15T08:31:29.331Z,31.58
2023-05-15T08:33:57.970Z,31.51
2023-05-15T08:36:27.053Z,31.26
2023-05-15T08:38:54.800Z,30.82
2023-05-15T08:41:39.192Z,30.59
2023-05-15T08:44:09.064Z,30.79
2023-05-15T08:46:37.403Z,30.67
2023-05-15T08:49:07.432Z,30.82
2023-05-15T08:51:36.078Z,31.00
2023-05-15T08:54:03.906Z,30.95
2023-05-15T08:56:31.967Z,30.93
2023-05-15T08:58:59.110Z,30.91
2023-05-15T09:01:27.607Z,31.13
2023-05-15T09:03:55.775Z,31.48
2023-05-15T09:06:23.085Z,31.27
2023-05-15T09:08:54.467Z,31.62
2023-05-15T09:11:23.401Z,31.43
2023-05-15T09:13:51.549Z,30.98
2023-05-15T09:16:19.984Z,31.26
2023-05-15T09:18:49.566Z,32.21
2023-05-15T09:21:24.770Z,31.40
2023-05-15T09:23:56.025Z,30.88
2023-05-15T09:26:24.238Z,30.68
2023-05-15T09:28:51.908Z,30.84
2023-05-15T09:31:19.816Z,30.36
2023-05-15T09:33:47.841Z,30.66
2023-05-15T09:36:22.336Z,30.79
2023-05-15T09:38:58.444Z,31.00
2023-05-15T09:41:28.299Z,30.30
2023-05-15T09:43:56.399Z,30.09
2023-05-15T09:46:24.427Z,29.84
2023-05-15T09:48:54.813Z,30.61
2023-05-15T09:51:22.383Z,30.51
2023-05-15T09:53:50.436Z,30.31
2023-05-15T09:56:18.680Z,29.87
2023-05-15T09:58:54.098Z,30.11
2023-05-15T10:01:21.852Z,29.73
2023-05-15T10:03:57.146Z,30.35
2023-05-15T10:06:24.739Z,31.21
2023-05-15T10:08:52.573Z,30.12
2023-05-15T10:11:19.916Z,29.86
2023-05-15T10:13:47.751Z,29.61
2023-05-15T10:16:20.970Z,29.58
2023-05-15T10:18:48.802Z,29.44
2023-05-15T10:21:16.754Z,29.89
2023-05-15T10:23:44.478Z,30.10
2023-05-15T10:26:14.592Z,30.36
2023-05-15T10:28:43.494Z,29.76
2023-05-15T10:31:13.125Z,29.80
2023-05-15T10:33:42.870Z,29.84
2023-05-15T10:36:10.553Z,29.52
2023-05-15T10:38:38.785Z,29.80
2023-05-15T10:41:16.435Z,30.11
2023-05-15T10:43:45.993Z,30.07
2023-05-15T10:46:13.661Z,29.15
2023-05-15T10:48:43.206Z,29.09
2023-05-15T10:51:14.683Z,29.16
2023-05-15T10:53:41.994Z,29.55
2023-05-15T10:56:12.660Z,29.66
2023-05-15T10:58:39.911Z,29.20
2023-05-15T11:01:24.686Z,28.72
2023-05-15T11:04:04.448Z,28.82
2023-05-15T11:06:31.731Z,28.93
2023-05-15T11:09:13.734Z,28.72
2023-05-15T11:11:54.112Z,29.11
2023-05-15T11:14:22.316Z,28.42
2023-05-15T11:17:00.643Z,28.53
2023-05-15T11:19:36.770Z,28.90
2023-05-15T11:22:16.075Z,28.59
2023-05-15T11:24:53.082Z,28.03
2023-05-15T11:27:21.060Z,28.21
2023-05-15T11:30:04.041Z,28.23
2023-05-15T11:32:41.252Z,28.61
2023-05-15T11:35:11.812Z,28.04
2023-05-15T11:37:42.000Z,28.14
2023-05-15T11:40:12.948Z,28.31
2023-05-15T11:42:40.521Z,27.97
2023-05-15T11:45:08.557Z,28.17
2023-05-15T11:47:36.261Z,27.98
2023-05-15T11:50:04.630Z,28.15
2023-05-15T11:52:33.965Z,27.87
2023-05-15T11:55:02.068Z,28.16
2023-05-15T11:57:29.701Z,27.83
2023-05-15T11:59:56.921Z,27.46
2023-05-15T12:02:24.196Z,27.59
2023-05-15T12:04:51.499Z,27.88
2023-05-15T12:07:18.732Z,27.10
2023-05-15T12:09:51.835Z,27.27
2023-05-15T12:12:19.639Z,27.65
2023-05-15T12:14:46.752Z,27.51
2023-05-15T12:17:13.876Z,27.87
2023-05-15T12:19:41.033Z,27.08
2023-05-15T12:22:08.168Z,27.09
2023-05-15T12:24:37.935Z,27.32
2023-05-15T12:27:06.724Z,26.75
2023-05-15T12:29:33.809Z,26.87
2023-05-15T12:32:01.026Z,26.80
2023-05-15T12:34:28.424Z,26.34
2023-05-15T12:36:55.560Z,27.34
2023-05-15T12:39:22.767Z,26.60
2023-05-15T12:41:49.940Z,27.09
2023-05-15T12:44:18.773Z,27.25
2023-05-15T12:46:45.951Z,27.24
2023-05-15T12:49:13.410Z,27.08
2023-05-15T12:51:43.696Z,26.99
2023-05-15T12:54:17.221Z,26.45
2023-05-15T12:56:44.693Z,26.85
2023-05-15T12:59:12.020Z,27.10
2023-05-15T13:01:41.879Z,26.62
2023-05-15T13:04:09.840Z,26.61
2023-05-15T13:06:46.612Z,27.39
2023-05-15T13:09:14.585Z,27.25
2023-05-15T13:11:43.690Z,27.21
2023-05-15T13:14:10.923Z,26.30
2023-05-15T13:16:38.144Z,26.63
2023-05-15T13:19:06.804Z,26.21
2023-05-15T13:21:33.939Z,26.30
2023-05-15T13:24:02.363Z,26.74
2023-05-15T13:26:30.029Z,26.45
2023-05-15T13:28:57.555Z,26.81
2023-05-15T13:31:25.443Z,26.68
2023-05-15T13:33:52.563Z,26.35
2023-05-15T13:36:21.266Z,26.25
2023-05-15T13:38:48.529Z,26.72
2023-05-15T13:41:15.593Z,26.65
2023-05-15T13:43:42.630Z,26.63
2023-05-15T13:46:12.104Z,26.36
2023-05-15T13:48:39.328Z,26.41
2023-05-15T13:51:06.446Z,26.31
2023-05-15T13:53:35.167Z,26.92
2023-05-15T13:56:02.594Z,26.49
2023-05-15T13:58:30.050Z,26.64
2023-05-15T14:00:57.736Z,26.83
2023-05-15T14:03:25.338Z,26.88
2023-05-15T14:05:53.015Z,26.27
2023-05-15T14:08:20.606Z,26.93
2023-05-15T14:10:49.487Z,27.01
2023-05-15T14:13:16.526Z,26.30
2023-05-15T14:15:43.577Z,27.05
2023-05-15T14:18:12.040Z,26.68
2023-05-15T14:20:39.738Z,26.81
2023-05-15T14:23:07.313Z,26.80
2023-05-15T14:25:34.713Z,26.49
2023-05-15T14:28:03.252Z,26.38
2023-05-15T14:30:30.564Z,26.48
2023-05-15T14:32:58.247Z,26.97
2023-05-15T14:35:25.303Z,27.01
2023-05-15T14:37:53.017Z,26.86
2023-05-15T14:40:20.736Z,27.14
2023-05-15T14:42:47.914Z,26.81
2023-05-15T14:45:17.121Z,26.76
2023-05-15T14:47:44.688Z,27.28
2023-05-15T14:50:12.027Z,27.07
2023-05-15T14:52:39.194Z,27.09
2023-05-15T14:55:09.350Z,26.74
2023-05-15T14:57:38.034Z,27.01
2023-05-15T15:00:07.392Z,27.27
2023-05-15T15:02:37.116Z,27.11
2023-05-15T15:05:04.637Z,27.08
2023-05-15T15:07:32.321Z,27.06
2023-05-15T15:09:59.406Z,27.14
2023-05-15T15:12:26.571Z,27.20
2023-05-15T15:14:53.817Z,27.26
2023-05-15T15:17:22.096Z,26.99
2023-05-15T15:19:51.139Z,27.16
2023-05-15T15:22:18.719Z,27.10
2023-05-15T15:24:46.424Z,27.34
2023-05-15T15:27:13.466Z,27.37
2023-05-15T15:29:41.021Z,26.93
2023-05-15T15:32:08.761Z,27.45
2023-05-15T15:34:36.866Z,27.54
2023-05-15T15:37:05.790Z,27.23
2023-05-15T15:39:33.272Z,27.07
2023-05-15T15:42:00.599Z,27.24
2023-05-15T15:44:27.649Z,27.38
2023-05-15T15:46:54.986Z,27.47
2023-05-15T15:49:25.035Z,27.46
2023-05-15T15:51:52.162Z,27.38
2023-05-15T15:54:20.804Z,27.72
2023-05-15T15:56:47.836Z,27.78
2023-05-15T15:59:14.919Z,27.71
2023-05-15T16:01:42.185Z,27.71
2023-05-15T16:04:10.123Z,27.59
2023-05-15T16:06:38.154Z,27.59
2023-05-15T16:09:05.866Z,27.41
2023-05-15T16:11:35.094Z,27.54
2023-05-15T16:14:02.582Z,27.83
2023-05-15T16:16:30.279Z,27.94
2023-05-15T16:18:57.610Z,27.80
2023-05-15T16:21:24.752Z,27.70
2023-05-15T16:23:51.798Z,27.55
2023-05-15T16:26:18.964Z,28.14
2023-05-15T16:28:47.802Z,27.92
2023-05-15T16:31:15.050Z,28.57
2023-05-15T16:33:42.813Z,28.60
2023-05-15T16:36:10.548Z,28.82
2023-05-15T16:38:37.857Z,28.71
2023-05-15T16:41:05.479Z,28.12
2023-05-15T16:43:32.776Z,28.59
2023-05-15T16:46:01.781Z,28.08
2023-05-15T16:48:29.145Z,28.13
2023-05-15T16:50:56.466Z,28.24
2023-05-15T16:53:23.791Z,27.96
2023-05-15T16:55:50.896Z,28.51
2023-05-15T16:58:17.984Z,28.19
2023-05-15T17:00:45.262Z,28.86
2023-05-15T17:03:16.781Z,28.11
2023-05-15T17:05:44.161Z,27.66
2023-05-15T17:08:11.211Z,28.69
2023-05-15T17:10:38.979Z,28.28
2023-05-15T17:13:06.186Z,28.24
2023-05-15T17:15:33.405Z,28.15
2023-05-15T17:18:00.653Z,27.67
2023-05-15T17:20:29.306Z,28.26
2023-05-15T17:22:56.413Z,28.17
2023-05-15T17:25:23.948Z,28.76
2023-05-15T17:27:51.449Z,28.20
2023-05-15T17:30:18.671Z,28.44
2023-05-15T17:32:45.821Z,28.26
2023-05-15T17:35:13.134Z,27.93
2023-05-15T17:37:41.665Z,28.44
2023-05-15T17:40:09.464Z,28.18
2023-05-15T17:42:36.676Z,27.85
2023-05-15T17:45:04.104Z,28.46
2023-05-15T17:47:31.884Z,28.04
2023-05-15T17:49:59.547Z,27.87
2023-05-15T17:52:28.218Z,28.37
2023-05-15T17:54:57.394Z,28.29
2023-05-15T17:57:24.532Z,28.18
2023-05-15T17:59:52.223Z,27.86
2023-05-15T18:02:19.307Z,28.03
2023-05-15T18:04:46.370Z,27.98
2023-05-15T18:07:13.543Z,28.25
2023-05-15T18:09:40.874Z,28.50
2023-05-15T18:12:09.741Z,28.23
2023-05-15T18:14:37.167Z,27.79
2023-05-15T18:17:05.533Z,28.29
2023-05-15T18:19:32.729Z,28.10
2023-05-15T18:21:59.804Z,28.05
2023-05-15T18:24:26.932Z,28.05
2023-05-15T18:26:54.118Z,27.64
2023-05-15T18:29:23.528Z,28.32
2023-05-15T18:31:50.985Z,27.68
2023-05-15T18:34:18.159Z,28.06
2023-05-15T18:36:45.234Z,28.02
2023-05-15T18:39:12.365Z,27.99
2023-05-15T18:41:39.454Z,28.04
2023-05-15T18:44:06.556Z,28.00
2023-05-15T18:46:35.117Z,28.25
2023-05-15T18:49:02.212Z,27.88
2023-05-15T18:51:29.303Z,27.92
2023-05-15T18:53:56.391Z,27.96
2023-05-15T18:56:23.607Z,28.23
2023-05-15T18:58:51.271Z,28.06
2023-05-15T19:01:18.448Z,28.14
2023-05-15T19:03:47.184Z,28.01
2023-05-15T19:06:14.279Z,27.52
2023-05-15T19:08:41.332Z,27.79
2023-05-15T19:11:08.449Z,27.92
2023-05-15T19:13:35.580Z,27.83
2023-05-15T19:16:02.650Z,27.46
2023-05-15T19:18:29.721Z,27.84
2023-05-15T19:20:58.296Z,27.92
2023-05-15T19:23:25.491Z,28.01
2023-05-15T19:25:52.587Z,27.96
2023-05-15T19:28:19.804Z,27.67
2023-05-15T19:30:46.904Z,27.76
2023-05-15T19:33:15.572Z,28.00
2023-05-15T19:35:42.763Z,28.15
2023-05-15T19:38:11.318Z,28.11
2023-05-15T19:40:38.544Z,27.57
2023-05-15T19:43:06.133Z,27.62
2023-05-15T19:45:33.361Z,27.74
2023-05-15T19:48:01.005Z,27.90
2023-05-15T19:50:28.349Z,27.82
2023-05-15T19:52:55.538Z,27.90
2023-05-15T19:55:24.182Z,27.90
2023-05-15T19:57:55.310Z,28.05
2023-05-15T20:00:22.756Z,27.80
2023-05-15T20:02:49.958Z,27.98
2023-05-15T20:05:17.184Z,27.40
2023-05-15T20:07:44.274Z,28.44
2023-05-15T20:10:11.825Z,27.77
2023-05-15T20:12:40.316Z,27.99
2023-05-15T20:15:08.120Z,27.50
2023-05-15T20:17:35.208Z,27.86
2023-05-15T20:20:02.914Z,27.47
2023-05-15T20:22:30.089Z,27.44
2023-05-15T20:24:57.160Z,27.74
2023-05-15T20:27:24.327Z,27.09
2023-05-15T20:29:52.954Z,26.92
2023-05-15T20:32:20.077Z,28.10
2023-05-15T20:34:47.175Z,27.80
2023-05-15T20:37:14.290Z,27.29
2023-05-15T20:39:41.879Z,27.67
2023-05-15T20:42:08.997Z,27.02
2023-05-15T20:44:36.432Z,28.05
2023-05-15T20:47:05.333Z,27.92
2023-05-15T20:49:32.652Z,27.70
2023-05-15T20:52:00.147Z,27.43
2023-05-15T20:54:27.305Z,27.28
2023-05-15T20:56:54.372Z,27.29
2023-05-15T20:59:21.464Z,27.35
2023-05-15T21:01:48.758Z,26.68
2023-05-15T21:04:17.473Z,27.58
2023-05-15T21:06:44.672Z,27.48
2023-05-15T21:09:11.858Z,27.30
2023-05-15T21:11:39.000Z,27.07
2023-05-15T21:14:06.524Z,27.66
2023-05-15T21:16:34.322Z,27.61
2023-05-15T21:19:01.463Z,27.70
2023-05-15T21:21:30.156Z,27.09
2023-05-15T21:23:57.299Z,27.29
2023-05-15T21:26:24.360Z,27.64
2023-05-15T21:28:51.981Z,27.30
2023-05-15T21:31:19.112Z,27.72
2023-05-15T21:33:46.249Z,27.62
2023-05-15T21:36:13.366Z,27.51
2023-05-15T21:38:42.019Z,27.74
2023-05-15T21:41:09.123Z,28.00
2023-05-15T21:43:36.238Z,28.05
2023-05-15T21:46:03.440Z,27.44
2023-05-15T21:48:30.912Z,27.64
2023-05-15T21:50:58.045Z,27.41
2023-05-15T21:53:25.442Z,27.41
2023-05-15T21:55:58.535Z,28.45
2023-05-15T21:58:26.285Z,27.67
2023-05-15T22:00:53.351Z,27.88
2023-05-15T22:03:21.464Z,28.21
2023-05-15T22:05:48.856Z,28.25
2023-05-15T22:08:16.087Z,28.21
2023-05-15T22:10:43.239Z,27.69
2023-05-15T22:13:11.738Z,28.05
2023-05-15T22:15:38.785Z,28.05
2023-05-15T22:18:06.180Z,27.68
2023-05-15T22:20:33.241Z,27.68
2023-05-15T22:23:00.550Z,27.77
2023-05-15T22:25:27.709Z,28.21
2023-05-15T22:27:54.773Z,27.90
2023-05-15T22:30:23.315Z,28.29
2023-05-15T22:32:50.462Z,27.82
2023-05-15T22:35:17.689Z,28.06
2023-05-15T22:37:44.876Z,28.13
2023-05-15T22:40:12.444Z,28.20
2023-05-15T22:42:39.474Z,28.04
2023-05-15T22:45:07.331Z,27.84
2023-05-15T22:47:35.972Z,28.19
2023-05-15T22:50:03.166Z,27.81
2023-05-15T22:52:30.349Z,28.30
2023-05-15T22:54:57.404Z,27.61
2023-05-15T22:57:24.630Z,27.76
2023-05-15T22:59:51.665Z,27.77
2023-05-15T23:02:18.804Z,27.69
2023-05-15T23:04:47.479Z,28.09
2023-05-15T23:07:14.532Z,28.47
2023-05-15T23:09:41.628Z,27.67
2023-05-15T23:12:08.836Z,27.53
2023-05-15T23:14:35.883Z,28.03
2023-05-15T23:17:03.257Z,27.95
2023-05-15T23:19:30.358Z,27.89
2023-05-15T23:21:59.388Z,28.27
2023-05-15T23:24:26.602Z,28.29
2023-05-15T23:26:53.724Z,28.00
2023-05-15T23:29:20.781Z,28.04
2023-05-15T23:31:47.841Z,27.93
2023-05-15T23:34:14.966Z,27.91
2023-05-15T23:36:42.269Z,27.65
2023-05-15T23:39:10.790Z,28.24
2023-05-15T23:41:37.832Z,27.66
2023-05-15T23:44:05.568Z,28.26
2023-05-15T23:46:32.829Z,27.97
2023-05-15T23:48:59.953Z,27.93
2023-05-15T23:51:27.278Z,27.94
2023-05-15T23:53:54.393Z,28.01
2023-05-15T23:56:23.003Z,27.72
2023-05-15T23:58:50.108Z,28.23
